createdAt,value
2019-05-09T00:02:33.720Z,2.57
2019-05-09T00:07:59.974Z,2.67
2019-05-09T00:13:08.077Z,3.20
2019-05-09T00:18:16.312Z,2.90
2019-05-09T00:23:24.758Z,2.73
2019-05-09T00:28:35.926Z,3.27
2019-05-09T00:33:48.360Z,3.37
2019-05-09T00:39:00.416Z,3.40
2019-05-09T00:44:09.185Z,3.23
2019-05-09T00:49:23.551Z,3.37
2019-05-09T00:54:33.659Z,4.00
2019-05-09T00:59:44.526Z,3.50
2019-05-09T01:04:53.146Z,3.80
2019-05-09T01:10:00.511Z,3.50
2019-05-09T01:15:09.550Z,3.47
2019-05-09T01:20:18.633Z,3.73
2019-05-09T01:25:27.432Z,3.50
2019-05-09T01:30:36.677Z,3.77
2019-05-09T01:35:47.154Z,3.03
2019-05-09T01:40:58.721Z,2.93
2019-05-09T01:46:06.880Z,2.50
2019-05-09T01:51:14.939Z,2.97
2019-05-09T01:56:24.807Z,2.50
2019-05-09T02:01:35.859Z,2.40
2019-05-09T02:06:44.896Z,2.10
2019-05-09T02:11:54.666Z,2.57
2019-05-09T02:17:07.283Z,2.27
2019-05-09T02:22:34.515Z,2.10
2019-05-09T02:27:45.365Z,2.17
2019-05-09T02:32:54.929Z,1.73
2019-05-09T02:38:05.583Z,1.80
2019-05-09T02:43:14.713Z,1.50
2019-05-09T02:48:23.851Z,1.43
2019-05-09T02:53:30.867Z,1.53
2019-05-09T02:58:44.215Z,1.40
2019-05-09T03:03:59.000Z,1.40
2019-05-09T03:09:09.073Z,1.30
2019-05-09T03:14:19.447Z,1.50
2019-05-09T03:19:29.426Z,1.37
2019-05-09T03:24:39.414Z,1.50
2019-05-09T03:29:49.767Z,1.40
2019-05-09T03:35:01.464Z,1.77
2019-05-09T03:40:09.671Z,1.77
2019-05-09T03:45:19.433Z,1.60
2019-05-09T03:50:28.039Z,1.70
2019-05-09T03:55:38.339Z,2.10
2019-05-09T04:00:47.911Z,1.70
2019-05-09T04:05:59.946Z,1.67
2019-05-09T04:11:08.400Z,1.77
2019-05-09T04:16:17.336Z,1.70
2019-05-09T04:21:27.968Z,2.00
2019-05-09T04:26:51.267Z,2.00
2019-05-09T04:32:00.084Z,2.70
2019-05-09T04:37:12.087Z,1.80
2019-05-09T04:42:22.657Z,1.70
2019-05-09T04:47:48.725Z,1.97
2019-05-09T04:52:58.560Z,2.10
2019-05-09T04:58:09.085Z,2.07
2019-05-09T05:03:18.493Z,2.23
2019-05-09T05:08:25.505Z,1.97
2019-05-09T05:13:34.424Z,1.83
2019-05-09T05:18:43.064Z,2.10
2019-05-09T05:23:57.674Z,1.90
2019-05-09T05:29:08.434Z,1.70
2019-05-09T05:34:24.355Z,1.90
2019-05-09T05:39:33.770Z,1.90
2019-05-09T05:44:44.069Z,1.83
2019-05-09T05:49:52.695Z,1.87
2019-05-09T05:54:59.688Z,1.90
2019-05-09T06:00:10.186Z,2.00
2019-05-09T06:05:18.702Z,1.80
2019-05-09T06:10:28.993Z,1.97
2019-05-09T06:15:38.039Z,1.80
2019-05-09T06:20:48.817Z,2.10
2019-05-09T06:26:10.050Z,1.50
2019-05-09T06:31:17.870Z,1.60
2019-05-09T06:36:28.319Z,1.60
2019-05-09T06:41:34.903Z,1.70
2019-05-09T06:46:48.296Z,1.70
2019-05-09T06:51:55.169Z,1.90
2019-05-09T06:57:04.150Z,1.30
2019-05-09T07:02:12.591Z,1.77
2019-05-09T07:07:22.478Z,1.60
2019-05-09T07:12:30.278Z,1.60
2019-05-09T07:17:39.426Z,1.50
2019-05-09T07:22:53.987Z,1.73
2019-05-09T07:28:03.795Z,1.70
2019-05-09T07:33:18.513Z,1.60
2019-05-09T07:38:30.711Z,2.30
2019-05-09T07:43:38.911Z,1.53
2019-05-09T07:48:57.819Z,1.70
2019-05-09T07:54:21.323Z,1.70
2019-05-09T07:59:14.888Z,1.87
2019-05-09T08:04:21.831Z,1.90
2019-05-09T08:09:33.449Z,1.90
2019-05-09T08:14:41.593Z,2.10
2019-05-09T08:19:48.847Z,1.60
2019-05-09T08:25:02.595Z,2.20
2019-05-09T08:30:11.973Z,1.70
2019-05-09T08:35:20.377Z,1.90
2019-05-09T08:40:28.723Z,1.53
2019-05-09T08:45:38.037Z,1.60
2019-05-09T08:50:52.073Z,1.53
2019-05-09T08:55:59.056Z,1.50
2019-05-09T09:01:35.474Z,1.63
2019-05-09T09:06:51.913Z,1.53
2019-05-09T09:12:27.072Z,1.60
2019-05-09T09:17:28.133Z,2.03
2019-05-09T09:22:53.419Z,1.50
2019-05-09T09:28:14.549Z,1.53
2019-05-09T09:33:21.800Z,1.63
2019-05-09T09:38:30.339Z,1.57
2019-05-09T09:43:38.568Z,1.70
2019-05-09T09:48:48.877Z,1.70
2019-05-09T09:53:58.415Z,1.70
2019-05-09T09:59:13.942Z,1.80
2019-05-09T10:04:24.397Z,1.80
2019-05-09T10:09:37.268Z,2.10
2019-05-09T10:15:01.064Z,2.07
2019-05-09T10:20:19.666Z,2.03
2019-05-09T10:25:32.110Z,2.40
2019-05-09T10:30:39.105Z,2.20
2019-05-09T10:35:49.898Z,1.97
2019-05-09T10:41:05.790Z,1.70
2019-05-09T10:46:19.388Z,1.80
2019-05-09T10:51:44.648Z,1.90
2019-05-09T10:57:10.004Z,1.80
2019-05-09T11:02:17.817Z,1.97
2019-05-09T11:07:43.286Z,1.60
2019-05-09T11:13:07.634Z,1.40
2019-05-09T11:18:18.391Z,1.13
2019-05-09T11:23:29.219Z,1.00
2019-05-09T11:28:44.199Z,1.17
2019-05-09T11:34:11.409Z,1.10
2019-05-09T11:39:42.012Z,1.07
2019-05-09T11:44:46.742Z,1.17
2019-05-09T11:50:09.006Z,1.40
2019-05-09T11:55:29.965Z,1.30
2019-05-09T12:00:29.425Z,1.33
2019-05-09T12:05:54.233Z,1.20
2019-05-09T12:11:01.944Z,1.00
2019-05-09T12:16:09.873Z,0.83
2019-05-09T12:21:19.163Z,0.90
2019-05-09T12:26:29.111Z,0.87
2019-05-09T12:31:38.387Z,0.90
2019-05-09T12:36:44.795Z,0.90
2019-05-09T12:41:51.848Z,1.20
2019-05-09T12:46:59.716Z,0.90
2019-05-09T12:52:08.162Z,0.90
2019-05-09T12:57:18.923Z,1.10
2019-05-09T13:02:24.907Z,1.10
2019-05-09T13:07:32.870Z,1.30
2019-05-09T13:12:40.004Z,0.80
2019-05-09T13:17:49.530Z,0.80
2019-05-09T13:22:59.975Z,1.37
2019-05-09T13:28:08.238Z,1.20
2019-05-09T13:33:18.846Z,1.00
2019-05-09T13:38:27.749Z,0.80
2019-05-09T13:43:45.670Z,1.03
2019-05-09T13:49:01.289Z,1.10
2019-05-09T13:53:53.921Z,0.87
2019-05-09T13:59:02.913Z,0.70
2019-05-09T14:04:10.983Z,0.70
2019-05-09T14:09:20.140Z,1.00
2019-05-09T14:14:28.712Z,1.00
2019-05-09T14:19:46.400Z,0.90
2019-05-09T14:24:58.542Z,0.93
2019-05-09T14:30:08.307Z,0.97
2019-05-09T14:35:34.683Z,0.77
2019-05-09T14:40:42.064Z,0.90
2019-05-09T14:45:49.653Z,0.60
2019-05-09T14:51:07.608Z,1.03
2019-05-09T14:56:16.681Z,0.80
2019-05-09T15:01:28.410Z,0.67
2019-05-09T15:06:35.586Z,0.70
2019-05-09T15:11:44.540Z,0.70
2019-05-09T15:16:53.982Z,0.60
2019-05-09T15:22:02.836Z,0.87
2019-05-09T15:27:10.758Z,0.70
2019-05-09T15:32:18.885Z,0.70
2019-05-09T15:37:28.606Z,1.10
2019-05-09T15:42:38.966Z,0.70
2019-05-09T15:47:48.302Z,0.70
2019-05-09T15:52:58.043Z,0.60
2019-05-09T15:58:06.093Z,0.60
2019-05-09T16:03:13.429Z,0.70
2019-05-09T16:08:33.428Z,0.93
2019-05-09T16:13:44.279Z,0.70
2019-05-09T16:19:11.965Z,0.97
2019-05-09T16:24:20.394Z,0.80
2019-05-09T16:29:35.190Z,0.80
2019-05-09T16:34:42.633Z,0.80
2019-05-09T16:39:59.466Z,0.80
2019-05-09T16:45:18.247Z,1.00
2019-05-09T16:50:29.939Z,0.90
2019-05-09T16:55:39.904Z,1.00
2019-05-09T17:00:50.663Z,1.30
2019-05-09T17:06:13.071Z,1.00
2019-05-09T17:11:23.008Z,1.10
2019-05-09T17:16:37.467Z,0.93
2019-05-09T17:21:53.097Z,1.40
2019-05-09T17:27:02.620Z,1.40
2019-05-09T17:32:11.694Z,1.17
2019-05-09T17:37:32.600Z,1.20
2019-05-09T17:43:11.045Z,1.40
2019-05-09T17:48:19.359Z,1.80
2019-05-09T17:53:32.907Z,1.80
2019-05-09T17:58:38.797Z,1.67
2019-05-09T18:03:48.088Z,1.50
2019-05-09T18:08:57.649Z,1.40
2019-05-09T18:14:07.833Z,1.90
2019-05-09T18:19:17.849Z,2.10
2019-05-09T18:24:28.718Z,2.30
2019-05-09T18:29:47.481Z,2.30
2019-05-09T18:35:07.949Z,2.37
2019-05-09T18:40:32.959Z,3.30
2019-05-09T18:45:58.518Z,3.50
2019-05-09T18:51:24.059Z,4.27
2019-05-09T18:56:50.416Z,3.27
2019-05-09T19:01:58.598Z,2.00
2019-05-09T19:07:21.223Z,1.77
2019-05-09T19:12:18.560Z,1.40
2019-05-09T19:17:44.932Z,1.27
2019-05-09T19:22:52.211Z,1.30
2019-05-09T19:28:01.025Z,1.30
2019-05-09T19:33:27.623Z,1.30
2019-05-09T19:38:52.900Z,1.30
2019-05-09T19:44:19.375Z,1.30
2019-05-09T19:49:44.722Z,1.20
2019-05-09T19:55:10.611Z,1.30
2019-05-09T20:00:36.089Z,1.20
2019-05-09T20:06:01.411Z,1.30
2019-05-09T20:11:28.611Z,0.90
2019-05-09T20:16:56.028Z,0.80
2019-05-09T20:22:22.405Z,0.80
2019-05-09T20:27:30.771Z,0.80
2019-05-09T20:32:40.002Z,0.80
2019-05-09T20:37:49.669Z,0.80
2019-05-09T20:42:59.806Z,0.87
2019-05-09T20:48:08.301Z,0.60
2019-05-09T20:53:19.056Z,0.80
2019-05-09T20:58:27.879Z,0.77
2019-05-09T21:03:37.003Z,0.70
2019-05-09T21:08:46.887Z,0.70
2019-05-09T21:13:56.113Z,1.00
2019-05-09T21:19:04.864Z,1.00
2019-05-09T21:24:16.131Z,1.00
2019-05-09T21:29:25.606Z,0.80
2019-05-09T21:34:39.662Z,0.97
2019-05-09T21:39:54.048Z,1.10
2019-05-09T21:45:10.547Z,1.10
2019-05-09T21:50:21.848Z,0.80
2019-05-09T21:55:33.031Z,1.10
2019-05-09T22:00:43.865Z,1.07
2019-05-09T22:05:54.105Z,1.00
2019-05-09T22:11:18.170Z,1.63
2019-05-09T22:16:44.236Z,1.20
2019-05-09T22:22:09.970Z,1.07
2019-05-09T22:27:36.787Z,1.10
2019-05-09T22:32:44.506Z,1.43
2019-05-09T22:37:59.144Z,1.23
2019-05-09T22:43:19.991Z,1.30
2019-05-09T23:09:08.847Z,1.77
2019-05-09T23:14:18.826Z,1.60
2019-05-09T23:19:32.865Z,1.63
2019-05-09T23:24:44.693Z,1.87
2019-05-09T23:30:12.268Z,2.20
2019-05-09T23:35:39.013Z,2.37
2019-05-09T23:41:05.463Z,3.43
2019-05-09T23:46:32.738Z,4.10
2019-05-09T23:51:45.502Z,4.60
2019-05-09T23:57:10.474Z,4.60
